createdAt,value
2022-08-25T00:01:26.442Z,6.57
2022-08-25T00:03:55.606Z,7.63
2022-08-25T00:06:23.470Z,8.40
2022-08-25T00:08:50.026Z,8.15
2022-08-25T00:11:21.772Z,6.60
2022-08-25T00:13:54.078Z,8.10
2022-08-25T00:16:22.353Z,6.80
2022-08-25T00:18:52.152Z,7.15
2022-08-25T00:21:20.247Z,7.88
2022-08-25T00:23:46.841Z,8.43
2022-08-25T00:26:15.623Z,6.18
2022-08-25T00:28:43.584Z,7.85
2022-08-25T00:31:16.657Z,8.18
2022-08-25T00:33:44.574Z,10.05
2022-08-25T00:36:14.019Z,8.15
2022-08-25T00:38:41.759Z,7.18
2022-08-25T00:41:11.132Z,6.75
2022-08-25T00:43:40.592Z,7.75
2022-08-25T00:46:11.363Z,6.43
2022-08-25T00:48:39.105Z,8.63
2022-08-25T00:51:07.828Z,8.23
2022-08-25T00:53:34.339Z,9.27
2022-08-25T00:56:01.574Z,7.45
2022-08-25T00:58:31.010Z,8.25
2022-08-25T01:00:58.096Z,8.85
2022-08-25T01:03:33.528Z,7.40
2022-08-25T01:06:03.726Z,10.45
2022-08-25T01:08:32.330Z,6.07
2022-08-25T01:11:02.447Z,9.13
2022-08-25T01:13:41.526Z,7.53
2022-08-25T01:16:08.464Z,7.78
2022-08-25T01:18:48.156Z,8.82
2022-08-25T01:21:14.806Z,7.03
2022-08-25T01:23:42.123Z,6.78
2022-08-25T01:26:13.287Z,6.93
2022-08-25T01:29:01.140Z,5.88
2022-08-25T01:31:28.920Z,5.25
2022-08-25T01:33:56.775Z,8.30
2022-08-25T01:36:23.688Z,7.88
2022-08-25T01:38:50.485Z,6.90
2022-08-25T01:41:22.645Z,8.02
2022-08-25T01:43:49.236Z,6.60
2022-08-25T01:46:15.922Z,8.07
2022-08-25T01:48:42.491Z,8.20
2022-08-25T01:51:09.563Z,7.22
2022-08-25T01:53:36.081Z,8.18
2022-08-25T01:56:11.538Z,9.68
2022-08-25T01:58:41.267Z,6.95
2022-08-25T02:01:11.266Z,7.05
2022-08-25T02:03:42.742Z,7.93
2022-08-25T02:06:12.206Z,7.60
2022-08-25T02:08:38.923Z,7.35
2022-08-25T02:11:05.498Z,8.88
2022-08-25T02:13:32.600Z,7.68
2022-08-25T02:16:00.875Z,6.15
2022-08-25T02:18:27.370Z,7.75
2022-08-25T02:20:54.189Z,6.65
2022-08-25T02:23:21.048Z,7.05
2022-08-25T02:25:47.539Z,7.30
2022-08-25T02:28:14.038Z,7.47
2022-08-25T02:30:42.620Z,8.18
2022-08-25T02:33:09.555Z,7.57
2022-08-25T02:35:36.468Z,12.48
2022-08-25T02:38:03.925Z,8.45
2022-08-25T02:40:30.581Z,8.07
2022-08-25T02:42:57.387Z,9.68
2022-08-25T02:45:23.911Z,7.03
2022-08-25T02:47:50.447Z,11.30
2022-08-25T02:50:16.935Z,8.27
2022-08-25T02:52:43.454Z,7.13
2022-08-25T02:55:14.139Z,6.43
2022-08-25T02:57:42.046Z,9.75
2022-08-25T03:00:12.889Z,7.13
2022-08-25T03:02:41.342Z,5.90
2022-08-25T03:05:09.309Z,9.73
2022-08-25T03:07:37.985Z,7.68
2022-08-25T03:10:06.825Z,7.57
2022-08-25T03:12:33.349Z,7.18
2022-08-25T03:14:59.842Z,8.52
2022-08-25T03:17:27.526Z,10.57
2022-08-25T03:19:57.692Z,7.57
2022-08-25T03:22:24.204Z,9.95
2022-08-25T03:24:50.711Z,9.18
2022-08-25T03:27:17.225Z,8.15
2022-08-25T03:29:43.749Z,7.38
2022-08-25T03:32:10.346Z,7.72
2022-08-25T03:34:36.942Z,6.85
2022-08-25T03:37:05.594Z,7.68
2022-08-25T03:39:32.088Z,8.48
2022-08-25T03:41:58.597Z,6.72
2022-08-25T03:44:25.094Z,6.68
2022-08-25T03:46:52.253Z,9.20
2022-08-25T03:49:22.595Z,7.88
2022-08-25T03:51:50.592Z,6.80
2022-08-25T03:54:21.105Z,9.20
2022-08-25T03:56:47.611Z,10.23
2022-08-25T03:59:14.512Z,7.95
2022-08-25T04:01:42.954Z,7.82
2022-08-25T04:04:10.853Z,9.00
2022-08-25T04:06:38.653Z,11.07
2022-08-25T04:09:05.309Z,9.48
2022-08-25T04:11:32.855Z,10.38
2022-08-25T04:14:01.140Z,9.10
2022-08-25T04:16:31.278Z,11.40
2022-08-25T04:18:59.530Z,11.55
2022-08-25T04:21:26.830Z,10.25
2022-08-25T04:23:54.939Z,9.00
2022-08-25T04:26:37.263Z,9.80
2022-08-25T04:29:06.562Z,10.77
2022-08-25T04:31:34.043Z,11.02
2022-08-25T04:34:04.434Z,9.27
2022-08-25T04:36:41.386Z,11.50
2022-08-25T04:39:07.982Z,10.27
2022-08-25T04:41:35.792Z,9.43
2022-08-25T04:44:03.741Z,9.95
2022-08-25T04:46:32.256Z,8.88
2022-08-25T04:48:59.896Z,11.10
2022-08-25T04:51:32.536Z,12.20
2022-08-25T04:54:05.399Z,9.25
2022-08-25T04:56:35.225Z,11.40
2022-08-25T04:59:04.036Z,7.70
2022-08-25T05:01:31.647Z,9.32
2022-08-25T05:03:59.701Z,8.65
2022-08-25T05:06:27.057Z,8.95
2022-08-25T05:08:53.655Z,10.00
2022-08-25T05:11:20.299Z,10.73
2022-08-25T05:13:52.491Z,11.20
2022-08-25T05:16:20.258Z,12.07
2022-08-25T05:18:47.429Z,11.63
2022-08-25T05:21:16.376Z,11.55
2022-08-25T05:23:43.640Z,10.80
2022-08-25T05:26:19.776Z,10.15
2022-08-25T05:28:47.686Z,10.07
2022-08-25T05:31:14.742Z,12.05
2022-08-25T05:33:42.018Z,9.60
2022-08-25T05:36:10.250Z,9.55
2022-08-25T05:38:37.733Z,9.63
2022-08-25T05:41:06.599Z,8.60
2022-08-25T05:43:33.731Z,8.68
2022-08-25T05:46:01.289Z,9.52
2022-08-25T05:48:27.854Z,9.48
2022-08-25T05:50:59.902Z,7.93
2022-08-25T05:53:28.268Z,9.73
2022-08-25T05:55:58.943Z,7.78
2022-08-25T05:58:28.239Z,7.80
2022-08-25T06:00:55.323Z,10.30
2022-08-25T06:03:21.875Z,8.52
2022-08-25T06:05:48.731Z,10.35
2022-08-25T06:08:16.105Z,8.27
2022-08-25T06:10:43.148Z,9.63
2022-08-25T06:13:09.747Z,7.85
2022-08-25T06:15:36.291Z,7.90
2022-08-25T06:18:03.436Z,7.28
2022-08-25T06:20:31.428Z,8.82
2022-08-25T06:22:58.576Z,8.95
2022-08-25T06:25:26.121Z,8.15
2022-08-25T06:27:53.710Z,8.63
2022-08-25T06:30:24.614Z,8.88
2022-08-25T06:32:55.345Z,9.23
2022-08-25T06:35:22.680Z,9.90
2022-08-25T06:37:49.197Z,9.70
2022-08-25T06:40:16.406Z,7.70
2022-08-25T06:42:43.266Z,11.40
2022-08-25T06:45:10.130Z,7.60
2022-08-25T06:47:37.668Z,8.30
2022-08-25T06:50:04.800Z,8.07
2022-08-25T06:52:31.822Z,7.97
2022-08-25T06:54:58.446Z,9.93
2022-08-25T06:57:25.061Z,7.97
2022-08-25T06:59:53.435Z,8.32
2022-08-25T07:02:21.859Z,8.50
2022-08-25T07:04:48.876Z,8.63
2022-08-25T07:07:15.380Z,7.75
2022-08-25T07:09:41.860Z,6.50
2022-08-25T07:12:08.665Z,10.05
2022-08-25T07:14:36.373Z,10.32
2022-08-25T07:17:03.319Z,6.30
2022-08-25T07:19:38.647Z,6.07
2022-08-25T07:22:07.562Z,8.45
2022-08-25T07:24:35.977Z,7.13
2022-08-25T07:27:02.528Z,10.00
2022-08-25T07:29:32.737Z,8.88
2022-08-25T07:32:01.333Z,7.40
2022-08-25T07:34:52.221Z,6.95
2022-08-25T07:37:32.276Z,5.35
2022-08-25T07:40:07.406Z,6.43
2022-08-25T07:42:33.964Z,6.82
2022-08-25T07:45:00.465Z,5.75
2022-08-25T07:47:27.026Z,6.45
2022-08-25T07:49:53.561Z,6.18
2022-08-25T07:52:21.314Z,10.30
2022-08-25T07:54:47.879Z,6.50
2022-08-25T07:57:14.500Z,5.72
2022-08-25T07:59:42.494Z,6.22
2022-08-25T08:02:17.728Z,5.35
2022-08-25T08:04:46.441Z,7.43
2022-08-25T08:07:13.102Z,6.82
2022-08-25T08:09:39.594Z,5.78
2022-08-25T08:12:06.772Z,5.00
2022-08-25T08:14:34.423Z,4.88
2022-08-25T08:17:06.541Z,7.18
2022-08-25T08:19:34.779Z,4.63
2022-08-25T08:22:02.302Z,6.45
2022-08-25T08:24:54.144Z,6.10
2022-08-25T08:27:17.106Z,6.57
2022-08-25T08:29:45.823Z,5.93
2022-08-25T08:32:13.435Z,7.40
2022-08-25T08:34:41.470Z,5.03
2022-08-25T08:37:10.508Z,5.78
2022-08-25T08:39:37.836Z,4.55
2022-08-25T08:42:18.874Z,5.35
2022-08-25T08:44:45.338Z,4.80
2022-08-25T08:47:46.395Z,3.78
2022-08-25T08:50:38.769Z,3.90
2022-08-25T08:53:15.089Z,7.30
2022-08-25T08:55:52.481Z,5.85
2022-08-25T08:58:26.409Z,8.65
2022-08-25T09:00:55.902Z,7.57
2022-08-25T09:03:55.330Z,5.43
2022-08-25T09:06:49.294Z,5.22
2022-08-25T09:09:27.775Z,5.60
2022-08-25T09:12:10.240Z,3.33
2022-08-25T09:15:12.799Z,4.53
2022-08-25T09:17:39.772Z,6.40
2022-08-25T09:20:38.722Z,5.47
2022-08-25T09:23:32.620Z,6.13
2022-08-25T09:26:21.083Z,4.25
2022-08-25T09:28:51.684Z,5.57
2022-08-25T09:31:28.840Z,5.72
2022-08-25T09:33:57.442Z,7.03
2022-08-25T09:36:24.671Z,6.13
2022-08-25T09:38:51.592Z,6.85
2022-08-25T09:41:36.053Z,5.75
2022-08-25T09:44:03.755Z,6.40
2022-08-25T09:46:30.358Z,6.65
2022-08-25T09:48:59.479Z,4.57
2022-08-25T09:51:42.394Z,4.50
2022-08-25T09:56:56.798Z,4.82
2022-08-25T09:59:34.682Z,3.67
2022-08-25T10:02:25.167Z,5.03
2022-08-25T10:04:52.904Z,3.75
2022-08-25T10:07:28.570Z,4.50
2022-08-25T10:09:57.440Z,6.28
2022-08-25T10:12:36.027Z,4.68
2022-08-25T10:15:29.373Z,5.60
2022-08-25T10:17:59.849Z,7.63
2022-08-25T10:20:33.114Z,4.32
2022-08-25T10:23:18.931Z,5.28
2022-08-25T10:25:57.905Z,4.38
2022-08-25T10:28:42.083Z,5.32
2022-08-25T10:31:27.256Z,5.63
2022-08-25T10:34:12.403Z,5.28
2022-08-25T10:37:09.139Z,7.20
2022-08-25T10:40:17.667Z,3.55
2022-08-25T10:43:07.922Z,5.85
2022-08-25T10:45:45.877Z,5.63
2022-08-25T10:48:25.315Z,5.22
2022-08-25T10:51:23.635Z,6.07
2022-08-25T10:54:26.543Z,6.35
2022-08-25T10:57:16.823Z,5.60
2022-08-25T10:59:52.114Z,4.97
2022-08-25T11:02:57.667Z,3.17
2022-08-25T11:08:13.575Z,4.03
2022-08-25T11:10:51.221Z,5.53
2022-08-25T11:13:26.596Z,5.88
2022-08-25T11:19:07.488Z,3.80
2022-08-25T11:21:46.800Z,7.15
2022-08-25T11:24:26.659Z,4.88
2022-08-25T11:26:56.492Z,5.45
2022-08-25T11:29:26.178Z,4.95
2022-08-25T11:31:54.081Z,3.60
2022-08-25T11:34:21.721Z,5.22
2022-08-25T11:36:56.341Z,3.78
2022-08-25T11:39:37.664Z,5.68
2022-08-25T11:42:43.253Z,21.48
2022-08-25T11:45:22.125Z,6.93
2022-08-25T11:47:55.626Z,5.30
2022-08-25T11:50:35.116Z,5.90
2022-08-25T11:53:26.780Z,3.95
2022-08-25T11:55:58.778Z,6.88
2022-08-25T11:58:28.281Z,5.22
2022-08-25T12:01:02.041Z,4.45
2022-08-25T12:03:31.492Z,3.80
2022-08-25T12:06:30.745Z,6.85
2022-08-25T12:08:59.870Z,4.45
2022-08-25T12:11:39.716Z,4.97
2022-08-25T12:14:13.842Z,4.28
2022-08-25T12:17:04.638Z,4.82
2022-08-25T12:19:49.649Z,5.18
2022-08-25T12:22:16.041Z,3.85
2022-08-25T12:24:48.066Z,7.85
2022-08-25T12:27:33.809Z,6.82
2022-08-25T12:30:00.583Z,6.03
2022-08-25T12:32:29.778Z,6.75
2022-08-25T12:35:15.788Z,4.25
2022-08-25T12:37:57.744Z,5.45
2022-08-25T12:40:45.309Z,6.72
2022-08-25T12:43:35.526Z,4.65
2022-08-25T12:46:29.730Z,3.97
2022-08-25T12:48:59.027Z,7.18
2022-08-25T12:51:50.980Z,9.82
2022-08-25T12:54:33.021Z,5.47
2022-08-25T12:57:05.065Z,4.55
2022-08-25T12:59:36.214Z,5.15
2022-08-25T13:02:21.976Z,5.18
2022-08-25T13:05:16.853Z,7.45
2022-08-25T13:08:10.438Z,4.72
2022-08-25T13:10:54.308Z,5.20
2022-08-25T13:13:36.634Z,3.95
2022-08-25T13:16:08.904Z,5.10
2022-08-25T13:18:38.059Z,3.55
2022-08-25T13:21:19.450Z,7.07
2022-08-25T13:23:49.232Z,5.93
2022-08-25T13:26:48.488Z,5.18
2022-08-25T13:29:40.846Z,4.18
2022-08-25T13:32:12.669Z,4.80
2022-08-25T13:34:42.582Z,5.13
2022-08-25T13:37:32.285Z,8.52
2022-08-25T13:40:16.338Z,5.88
2022-08-25T13:42:53.059Z,5.57
2022-08-25T13:45:34.623Z,5.25
2022-08-25T13:48:22.609Z,4.20
2022-08-25T13:50:52.268Z,5.97
2022-08-25T13:53:25.139Z,5.95
2022-08-25T13:55:57.100Z,5.80
2022-08-25T13:58:39.147Z,8.27
2022-08-25T14:01:48.274Z,4.55
2022-08-25T14:04:51.205Z,6.20
2022-08-25T14:07:19.626Z,4.35
2022-08-25T14:09:49.716Z,8.07
2022-08-25T14:12:39.915Z,6.07
2022-08-25T14:15:29.466Z,6.35
2022-08-25T14:18:31.444Z,9.50
2022-08-25T14:21:02.008Z,2.85
2022-08-25T14:23:30.704Z,4.95
2022-08-25T14:25:58.137Z,7.05
2022-08-25T14:28:28.915Z,5.78
2022-08-25T14:31:10.937Z,6.75
2022-08-25T14:33:44.153Z,3.67
2022-08-25T14:36:18.532Z,5.55
2022-08-25T14:38:45.370Z,6.78
2022-08-25T14:41:21.518Z,4.40
2022-08-25T14:43:48.208Z,5.18
2022-08-25T14:46:20.274Z,4.78
2022-08-25T14:48:52.083Z,5.47
2022-08-25T14:51:18.698Z,4.10
2022-08-25T14:53:46.940Z,4.25
2022-08-25T14:56:14.127Z,7.07
2022-08-25T14:58:48.455Z,9.02
2022-08-25T15:01:28.454Z,5.60
2022-08-25T15:04:00.453Z,6.10
2022-08-25T15:06:27.915Z,5.45
2022-08-25T15:09:07.936Z,8.68
2022-08-25T15:11:36.166Z,3.38
2022-08-25T15:14:05.413Z,4.35
2022-08-25T15:16:35.329Z,5.68
2022-08-25T15:19:06.689Z,8.48
2022-08-25T15:21:34.679Z,3.85
2022-08-25T15:24:03.160Z,6.10
2022-08-25T15:26:29.714Z,4.63
2022-08-25T15:28:56.264Z,4.95
2022-08-25T15:31:23.556Z,3.83
2022-08-25T15:33:50.189Z,6.30
2022-08-25T15:36:20.672Z,6.65
2022-08-25T15:38:47.388Z,4.95
2022-08-25T15:41:13.919Z,5.50
2022-08-25T15:43:42.558Z,6.38
2022-08-25T15:46:09.728Z,5.75
2022-08-25T15:48:36.843Z,6.13
2022-08-25T15:51:05.295Z,5.55
2022-08-25T15:53:31.911Z,3.95
2022-08-25T15:55:58.471Z,5.78
2022-08-25T15:58:32.245Z,5.32
2022-08-25T16:00:59.812Z,4.32
2022-08-25T16:03:27.133Z,5.80
2022-08-25T16:05:53.945Z,8.32
2022-08-25T16:08:20.723Z,7.10
2022-08-25T16:10:47.767Z,10.93
2022-08-25T16:13:16.444Z,5.25
2022-08-25T16:15:52.966Z,6.55
2022-08-25T16:18:22.252Z,6.30
2022-08-25T16:20:49.853Z,5.07
2022-08-25T16:23:17.995Z,3.90
2022-08-25T16:25:46.444Z,8.55
2022-08-25T16:28:14.670Z,8.48
2022-08-25T16:30:52.737Z,5.53
2022-08-25T16:33:20.389Z,26.63
2022-08-25T16:35:47.495Z,6.78
2022-08-25T16:38:15.938Z,4.78
2022-08-25T16:40:43.170Z,4.93
2022-08-25T16:43:10.535Z,10.60
2022-08-25T16:45:38.388Z,3.65
2022-08-25T16:48:05.847Z,5.93
2022-08-25T16:50:32.647Z,7.30
2022-08-25T16:53:20.086Z,6.88
2022-08-25T16:55:50.387Z,8.52
2022-08-25T16:58:17.934Z,10.82
2022-08-25T17:00:45.939Z,7.45
2022-08-25T17:03:14.762Z,7.18
2022-08-25T17:05:42.959Z,7.63
2022-08-25T17:08:27.944Z,7.63
2022-08-25T17:11:15.032Z,5.70
2022-08-25T17:13:47.652Z,4.93
2022-08-25T17:16:17.252Z,5.30
2022-08-25T17:18:47.923Z,10.73
2022-08-25T17:21:16.059Z,5.13
2022-08-25T17:23:49.130Z,8.48
2022-08-25T17:26:18.144Z,6.20
2022-08-25T17:28:44.799Z,6.65
2022-08-25T17:31:12.843Z,6.15
2022-08-25T17:33:39.857Z,7.95
2022-08-25T17:36:07.409Z,5.30
2022-08-25T17:38:34.466Z,8.05
2022-08-25T17:41:03.326Z,6.25
2022-08-25T17:43:31.793Z,6.68
2022-08-25T17:45:58.358Z,6.88
2022-08-25T17:48:26.262Z,8.07
2022-08-25T17:50:53.723Z,8.00
2022-08-25T17:53:20.854Z,5.05
2022-08-25T17:55:58.160Z,6.80
2022-08-25T17:58:24.916Z,7.82
2022-08-25T18:00:54.266Z,12.50
2022-08-25T18:03:20.977Z,8.20
2022-08-25T18:05:47.683Z,7.05
2022-08-25T18:08:16.015Z,7.75
2022-08-25T18:10:44.165Z,8.52
2022-08-25T18:13:10.679Z,6.78
2022-08-25T18:15:39.478Z,7.30
2022-08-25T18:18:09.680Z,7.82
2022-08-25T18:20:39.278Z,6.57
2022-08-25T18:23:09.763Z,8.15
2022-08-25T18:25:36.557Z,6.78
2022-08-25T18:28:08.605Z,7.13
2022-08-25T18:30:36.071Z,8.15
2022-08-25T18:33:03.094Z,6.07
2022-08-25T18:35:29.884Z,7.90
2022-08-25T18:38:16.527Z,7.28
2022-08-25T18:40:43.851Z,7.35
2022-08-25T18:43:12.711Z,10.02
2022-08-25T18:45:44.226Z,6.72
2022-08-25T18:48:11.140Z,7.70
2022-08-25T18:50:40.982Z,8.43
2022-08-25T18:53:08.333Z,6.60
2022-08-25T18:55:35.760Z,6.28
2022-08-25T18:58:03.457Z,6.25
2022-08-25T19:00:30.958Z,9.20
2022-08-25T19:02:59.779Z,7.43
2022-08-25T19:05:34.245Z,7.80
2022-08-25T19:08:02.960Z,8.82
2022-08-25T19:10:30.174Z,7.25
2022-08-25T19:12:58.035Z,7.05
2022-08-25T19:15:29.613Z,7.43
2022-08-25T19:17:57.305Z,5.90
2022-08-25T19:20:24.870Z,7.35
2022-08-25T19:22:52.270Z,6.47
2022-08-25T19:25:20.744Z,7.35
2022-08-25T19:27:48.911Z,6.32
2022-08-25T19:30:17.385Z,7.03
2022-08-25T19:32:45.438Z,5.80
2022-08-25T19:35:19.079Z,9.80
2022-08-25T19:37:45.627Z,8.75
2022-08-25T19:40:13.131Z,9.30
2022-08-25T19:42:40.039Z,9.98
2022-08-25T19:45:10.211Z,12.05
2022-08-25T19:47:37.599Z,10.57
2022-08-25T19:50:08.486Z,6.30
2022-08-25T19:52:36.330Z,8.48
2022-08-25T19:55:03.067Z,8.88
2022-08-25T19:57:42.809Z,7.90
2022-08-25T20:00:15.549Z,9.95
2022-08-25T20:02:42.344Z,7.22
2022-08-25T20:05:09.171Z,8.13
2022-08-25T20:07:36.026Z,6.68
2022-08-25T20:10:05.469Z,8.80
2022-08-25T20:12:32.040Z,8.80
2022-08-25T20:14:58.587Z,11.35
2022-08-25T20:17:26.354Z,9.43
2022-08-25T20:19:58.559Z,9.95
2022-08-25T20:22:27.128Z,9.57
2022-08-25T20:24:59.308Z,9.95
2022-08-25T20:27:35.527Z,9.27
2022-08-25T20:30:07.029Z,10.77
2022-08-25T20:32:33.906Z,10.57
2022-08-25T20:35:01.827Z,8.75
2022-08-25T20:37:28.516Z,11.00
2022-08-25T20:39:55.185Z,10.35
2022-08-25T20:42:22.118Z,10.43
2022-08-25T20:44:48.723Z,9.50
2022-08-25T20:47:15.429Z,9.43
2022-08-25T20:49:45.249Z,11.25
2022-08-25T20:52:13.968Z,9.80
2022-08-25T20:54:46.991Z,9.82
2022-08-25T20:57:25.448Z,11.23
2022-08-25T20:59:53.641Z,9.45
2022-08-25T21:02:20.386Z,10.98
2022-08-25T21:04:49.057Z,11.07
2022-08-25T21:07:17.030Z,10.85
2022-08-25T21:09:43.560Z,11.02
2022-08-25T21:12:10.134Z,10.68
2022-08-25T21:14:38.319Z,14.63
2022-08-25T21:17:05.201Z,11.80
2022-08-25T21:19:31.844Z,9.15
2022-08-25T21:22:00.286Z,10.27
2022-08-25T21:24:28.014Z,11.98
2022-08-25T21:26:56.401Z,12.27
2022-08-25T21:29:24.227Z,10.20
2022-08-25T21:31:50.890Z,11.02
2022-08-25T21:34:18.608Z,12.38
2022-08-25T21:36:45.590Z,11.55
2022-08-25T21:39:12.395Z,12.18
2022-08-25T21:41:41.272Z,13.35
2022-08-25T21:44:07.961Z,10.30
2022-08-25T21:46:35.913Z,9.65
2022-08-25T21:49:06.063Z,11.27
2022-08-25T21:51:36.007Z,11.02
2022-08-25T21:54:10.143Z,8.63
2022-08-25T21:56:45.007Z,10.38
2022-08-25T21:59:14.961Z,11.43
2022-08-25T22:01:42.377Z,12.40
2022-08-25T22:04:10.517Z,12.63
2022-08-25T22:06:38.014Z,16.45
2022-08-25T22:09:06.172Z,11.10
2022-08-25T22:11:36.183Z,12.00
2022-08-25T22:14:03.438Z,14.00
2022-08-25T22:16:31.886Z,13.70
2022-08-25T22:18:59.484Z,13.25
2022-08-25T22:21:28.206Z,11.30
2022-08-25T22:23:56.022Z,12.75
2022-08-25T22:26:23.067Z,12.70
2022-08-25T22:28:49.816Z,12.88
2022-08-25T22:31:20.921Z,12.05
2022-08-25T22:33:48.334Z,12.88
2022-08-25T22:36:20.530Z,14.55
2022-08-25T22:38:47.555Z,10.05
2022-08-25T22:41:18.913Z,10.90
2022-08-25T22:43:49.005Z,10.90
2022-08-25T22:46:17.072Z,15.23
2022-08-25T22:48:43.956Z,12.45
2022-08-25T22:51:23.288Z,13.23
2022-08-25T22:53:50.592Z,14.57
2022-08-25T22:56:30.913Z,15.20
2022-08-25T22:58:59.136Z,15.85
2022-08-25T23:01:25.668Z,12.63
2022-08-25T23:03:52.510Z,13.00
2022-08-25T23:06:24.017Z,12.48
2022-08-25T23:08:53.663Z,15.73
2022-08-25T23:11:21.574Z,17.63
2022-08-25T23:13:48.110Z,16.65
2022-08-25T23:16:15.494Z,16.52
2022-08-25T23:18:43.972Z,12.13
2022-08-25T23:21:38.005Z,12.20
2022-08-25T23:24:08.819Z,14.02
2022-08-25T23:26:42.564Z,13.55
2022-08-25T23:29:18.424Z,12.85
2022-08-25T23:31:47.548Z,16.02
2022-08-25T23:34:15.476Z,12.35
2022-08-25T23:36:42.868Z,13.68
2022-08-25T23:39:10.482Z,15.50
2022-08-25T23:41:37.053Z,13.63
2022-08-25T23:44:05.318Z,11.45
2022-08-25T23:46:33.034Z,14.20
2022-08-25T23:48:59.647Z,13.90
2022-08-25T23:51:29.547Z,13.27
2022-08-25T23:53:57.444Z,16.85
2022-08-25T23:56:29.043Z,12.10
2022-08-25T23:58:56.210Z,16.38
